sensor_id;sensor_type;location;lat;lon;timestamp;pressure;altitude;pressure_sealevel;temperature;humidity
17309;BME280;8772;42.804;23.426;2023-04-30T00:00:22;73852.75;;;-140.58;100.00
17309;BME280;8772;42.804;23.426;2023-04-30T00:02:49;73854.78;;;-140.58;100.00
17309;BME280;8772;42.804;23.426;2023-04-30T00:05:18;73850.69;;;-140.58;100.00
17309;BME280;8772;42.804;23.426;2023-04-30T00:07:44;73867.09;;;-140.58;100.00
17309;BME280;8772;42.804;23.426;2023-04-30T00:10:11;73867.09;;;-140.58;100.00
17309;BME280;8772;42.804;23.426;2023-04-30T00:12:38;73875.31;;;-140.58;100.00
17309;BME280;8772;42.804;23.426;2023-04-30T00:15:06;73879.41;;;-140.58;100.00
17309;BME280;8772;42.804;23.426;2023-04-30T00:17:33;73897.88;;;-140.58;100.00
17309;BME280;8772;42.804;23.426;2023-04-30T00:19:59;73901.97;;;-140.58;100.00
17309;BME280;8772;42.804;23.426;2023-04-30T00:22:28;73877.34;;;-140.58;100.00
17309;BME280;8772;42.804;23.426;2023-04-30T00:24:55;73875.31;;;-140.58;100.00
17309;BME280;8772;42.804;23.426;2023-04-30T00:27:22;73871.19;;;-140.58;100.00
17309;BME280;8772;42.804;23.426;2023-04-30T00:29:48;73875.31;;;-140.58;100.00
17309;BME280;8772;42.804;23.426;2023-04-30T00:32:15;73885.56;;;-140.58;100.00
17309;BME280;8772;42.804;23.426;2023-04-30T00:34:42;73891.72;;;-140.58;100.00
17309;BME280;8772;42.804;23.426;2023-04-30T00:37:10;73904.03;;;-140.58;100.00
17309;BME280;8772;42.804;23.426;2023-04-30T00:39:38;73891.72;;;-140.58;100.00
17309;BME280;8772;42.804;23.426;2023-04-30T00:42:05;73895.81;;;-140.58;100.00
17309;BME280;8772;42.804;23.426;2023-04-30T00:44:32;73908.13;;;-140.58;100.00
17309;BME280;8772;42.804;23.426;2023-04-30T00:46:59;73916.34;;;-140.58;100.00
17309;BME280;8772;42.804;23.426;2023-04-30T00:49:26;73912.22;;;-140.58;100.00
17309;BME280;8772;42.804;23.426;2023-04-30T00:51:53;73924.53;;;-140.58;100.00
17309;BME280;8772;42.804;23.426;2023-04-30T00:54:20;73916.34;;;-140.58;100.00
17309;BME280;8772;42.804;23.426;2023-04-30T00:56:49;73916.34;;;-140.58;100.00
17309;BME280;8772;42.804;23.426;2023-04-30T00:59:16;73895.81;;;-140.58;100.00
17309;BME280;8772;42.804;23.426;2023-04-30T01:01:43;73891.72;;;-140.58;100.00
17309;BME280;8772;42.804;23.426;2023-04-30T01:07:33;73889.66;;;-140.58;100.00
17309;BME280;8772;42.804;23.426;2023-04-30T01:10:01;73895.81;;;-140.58;100.00
17309;BME280;8772;42.804;23.426;2023-04-30T01:12:36;73910.19;;;-140.58;100.00
17309;BME280;8772;42.804;23.426;2023-04-30T01:15:09;73899.91;;;-140.58;100.00
17309;BME280;8772;42.804;23.426;2023-04-30T01:17:44;73895.81;;;-140.58;100.00
17309;BME280;8772;42.804;23.426;2023-04-30T01:20:13;73887.63;;;-140.58;100.00
17309;BME280;8772;42.804;23.426;2023-04-30T01:22:46;73914.28;;;-140.58;100.00
17309;BME280;8772;42.804;23.426;2023-04-30T01:25:34;73924.53;;;-140.58;100.00
17309;BME280;8772;42.804;23.426;2023-04-30T01:28:14;73928.66;;;-140.58;100.00
17309;BME280;8772;42.804;23.426;2023-04-30T01:30:42;73924.53;;;-140.58;100.00
17309;BME280;8772;42.804;23.426;2023-04-30T01:33:10;73918.38;;;-140.58;100.00
17309;BME280;8772;42.804;23.426;2023-04-30T01:35:53;73928.66;;;-140.58;100.00
17309;BME280;8772;42.804;23.426;2023-04-30T01:38:34;73953.25;;;-140.58;100.00
17309;BME280;8772;42.804;23.426;2023-04-30T01:41:09;73963.53;;;-140.58;100.00
17309;BME280;8772;42.804;23.426;2023-04-30T01:43:44;73969.69;;;-140.58;100.00
17309;BME280;8772;42.804;23.426;2023-04-30T01:46:18;73945.06;;;-140.58;100.00
17309;BME280;8772;42.804;23.426;2023-04-30T01:48:53;73959.41;;;-140.58;100.00
17309;BME280;8772;42.804;23.426;2023-04-30T01:51:30;73943.00;;;-140.58;100.00
17309;BME280;8772;42.804;23.426;2023-04-30T01:54:02;73969.69;;;-140.58;100.00
17309;BME280;8772;42.804;23.426;2023-04-30T01:56:36;73959.41;;;-140.58;100.00
17309;BME280;8772;42.804;23.426;2023-04-30T01:59:08;73957.38;;;-140.58;100.00
17309;BME280;8772;42.804;23.426;2023-04-30T02:01:36;73953.25;;;-140.58;100.00
17309;BME280;8772;42.804;23.426;2023-04-30T02:04:03;73953.25;;;-140.58;100.00
17309;BME280;8772;42.804;23.426;2023-04-30T02:06:30;73949.16;;;-140.58;100.00
17309;BME280;8772;42.804;23.426;2023-04-30T02:08:57;73949.16;;;-140.58;100.00
17309;BME280;8772;42.804;23.426;2023-04-30T02:11:27;73940.94;;;-140.58;100.00
17309;BME280;8772;42.804;23.426;2023-04-30T02:13:54;73945.06;;;-140.58;100.00
17309;BME280;8772;42.804;23.426;2023-04-30T02:16:23;73945.06;;;-140.58;100.00
17309;BME280;8772;42.804;23.426;2023-04-30T02:18:50;73940.94;;;-140.58;100.00
17309;BME280;8772;42.804;23.426;2023-04-30T02:21:17;73953.25;;;-140.58;100.00
17309;BME280;8772;42.804;23.426;2023-04-30T02:23:44;73959.41;;;-140.58;100.00
17309;BME280;8772;42.804;23.426;2023-04-30T02:26:11;73965.56;;;-140.58;100.00
17309;BME280;8772;42.804;23.426;2023-04-30T02:28:38;73949.16;;;-140.58;100.00
17309;BME280;8772;42.804;23.426;2023-04-30T02:31:04;73945.06;;;-140.58;100.00
17309;BME280;8772;42.804;23.426;2023-04-30T02:33:33;73959.41;;;-140.58;100.00
17309;BME280;8772;42.804;23.426;2023-04-30T02:36:00;73961.47;;;-140.58;100.00
17309;BME280;8772;42.804;23.426;2023-04-30T02:38:27;73967.63;;;-140.58;100.00
17309;BME280;8772;42.804;23.426;2023-04-30T02:40:54;73969.69;;;-140.58;100.00
17309;BME280;8772;42.804;23.426;2023-04-30T02:43:21;73977.88;;;-140.58;100.00
17309;BME280;8772;42.804;23.426;2023-04-30T02:45:48;73971.72;;;-140.58;100.00
17309;BME280;8772;42.804;23.426;2023-04-30T02:48:15;73977.88;;;-140.58;100.00
17309;BME280;8772;42.804;23.426;2023-04-30T02:50:43;73996.34;;;-140.58;100.00
17309;BME280;8772;42.804;23.426;2023-04-30T02:53:10;73994.28;;;-140.58;100.00
17309;BME280;8772;42.804;23.426;2023-04-30T02:55:36;73994.28;;;-140.58;100.00
17309;BME280;8772;42.804;23.426;2023-04-30T02:58:03;73992.25;;;-140.58;100.00
17309;BME280;8772;42.804;23.426;2023-04-30T03:00:30;73994.28;;;-140.58;100.00
17309;BME280;8772;42.804;23.426;2023-04-30T03:02:57;73990.19;;;-140.58;100.00
17309;BME280;8772;42.804;23.426;2023-04-30T03:05:24;74004.56;;;-140.58;100.00
17309;BME280;8772;42.804;23.426;2023-04-30T03:07:52;74014.81;;;-140.58;100.00
17309;BME280;8772;42.804;23.426;2023-04-30T03:10:19;74010.72;;;-140.58;100.00
17309;BME280;8772;42.804;23.426;2023-04-30T03:12:46;73994.28;;;-140.58;100.00
17309;BME280;8772;42.804;23.426;2023-04-30T03:15:12;73990.19;;;-140.58;100.00
17309;BME280;8772;42.804;23.426;2023-04-30T03:17:40;73986.09;;;-140.58;100.00
17309;BME280;8772;42.804;23.426;2023-04-30T03:20:07;73977.88;;;-140.58;100.00
17309;BME280;8772;42.804;23.426;2023-04-30T03:22:34;73965.56;;;-140.58;100.00
17309;BME280;8772;42.804;23.426;2023-04-30T03:25:03;73959.41;;;-140.58;100.00
17309;BME280;8772;42.804;23.426;2023-04-30T03:27:30;73947.09;;;-140.58;100.00
17309;BME280;8772;42.804;23.426;2023-04-30T03:29:56;73943.00;;;-140.58;100.00
17309;BME280;8772;42.804;23.426;2023-04-30T03:32:23;73934.81;;;-140.58;100.00
17309;BME280;8772;42.804;23.426;2023-04-30T03:34:50;73922.50;;;-140.58;100.00
17309;BME280;8772;42.804;23.426;2023-04-30T03:37:17;73912.22;;;-140.58;100.00
17309;BME280;8772;42.804;23.426;2023-04-30T03:39:44;73891.72;;;-140.58;100.00
17309;BME280;8772;42.804;23.426;2023-04-30T03:42:12;73883.50;;;-140.58;100.00
17309;BME280;8772;42.804;23.426;2023-04-30T03:44:39;73865.03;;;-140.58;100.00
17309;BME280;8772;42.804;23.426;2023-04-30T03:47:06;73854.78;;;-140.58;100.00
17309;BME280;8772;42.804;23.426;2023-04-30T03:49:33;73848.63;;;-140.58;100.00
17309;BME280;8772;42.804;23.426;2023-04-30T03:51:59;73838.38;;;-140.58;100.00
17309;BME280;8772;42.804;23.426;2023-04-30T03:54:26;73821.97;;;-140.58;100.00
17309;BME280;8772;42.804;23.426;2023-04-30T03:56:53;73809.66;;;-140.58;100.00
17309;BME280;8772;42.804;23.426;2023-04-30T03:59:22;73801.44;;;-140.58;100.00
17309;BME280;8772;42.804;23.426;2023-04-30T04:01:49;73797.34;;;-140.58;100.00
17309;BME280;8772;42.804;23.426;2023-04-30T04:04:16;73783.00;;;-140.58;100.00
17309;BME280;8772;42.804;23.426;2023-04-30T04:06:43;73774.78;;;-140.58;100.00
17309;BME280;8772;42.804;23.426;2023-04-30T04:09:10;73772.72;;;-140.58;100.00
17309;BME280;8772;42.804;23.426;2023-04-30T04:11:37;73760.44;;;-140.58;100.00
17309;BME280;8772;42.804;23.426;2023-04-30T04:14:04;73756.31;;;-140.58;100.00
17309;BME280;8772;42.804;23.426;2023-04-30T04:16:32;73750.16;;;-140.58;100.00
17309;BME280;8772;42.804;23.426;2023-04-30T04:18:59;73735.81;;;-140.58;100.00
17309;BME280;8772;42.804;23.426;2023-04-30T04:21:26;73723.50;;;-140.58;100.00
17309;BME280;8772;42.804;23.426;2023-04-30T04:23:53;73727.59;;;-140.58;100.00
17309;BME280;8772;42.804;23.426;2023-04-30T04:26:20;73723.50;;;-140.58;100.00
17309;BME280;8772;42.804;23.426;2023-04-30T04:28:48;73715.28;;;-140.58;100.00
17309;BME280;8772;42.804;23.426;2023-04-30T04:31:15;73705.03;;;-140.58;100.00
17309;BME280;8772;42.804;23.426;2023-04-30T04:33:43;73698.88;;;-140.58;100.00
17309;BME280;8772;42.804;23.426;2023-04-30T04:36:10;73686.56;;;-140.58;100.00
17309;BME280;8772;42.804;23.426;2023-04-30T04:38:37;73678.38;;;-140.58;100.00
17309;BME280;8772;42.804;23.426;2023-04-30T04:41:04;73670.16;;;-140.58;100.00
17309;BME280;8772;42.804;23.426;2023-04-30T04:43:31;73661.97;;;-140.58;100.00
17309;BME280;8772;42.804;23.426;2023-04-30T04:45:58;73651.69;;;-140.58;100.00
17309;BME280;8772;42.804;23.426;2023-04-30T04:48:24;73647.59;;;-140.58;100.00
17309;BME280;8772;42.804;23.426;2023-04-30T04:50:53;73639.38;;;-140.58;100.00
17309;BME280;8772;42.804;23.426;2023-04-30T04:53:19;73629.13;;;-140.58;100.00
17309;BME280;8772;42.804;23.426;2023-04-30T04:55:46;73616.81;;;-140.58;100.00
17309;BME280;8772;42.804;23.426;2023-04-30T04:58:13;73612.72;;;-140.58;100.00
17309;BME280;8772;42.804;23.426;2023-04-30T05:00:40;73604.53;;;-140.58;100.00
17309;BME280;8772;42.804;23.426;2023-04-30T05:03:07;73598.38;;;-140.58;100.00
17309;BME280;8772;42.804;23.426;2023-04-30T05:05:34;73590.16;;;-140.58;100.00
17309;BME280;8772;42.804;23.426;2023-04-30T05:08:02;73579.91;;;-140.58;100.00
17309;BME280;8772;42.804;23.426;2023-04-30T05:10:29;73569.66;;;-140.58;100.00
17309;BME280;8772;42.804;23.426;2023-04-30T05:12:56;73559.38;;;-140.58;100.00
17309;BME280;8772;42.804;23.426;2023-04-30T05:15:23;73547.09;;;-140.58;100.00
17309;BME280;8772;42.804;23.426;2023-04-30T05:17:50;73545.03;;;-140.58;100.00
17309;BME280;8772;42.804;23.426;2023-04-30T05:20:17;73547.09;;;-140.58;100.00
17309;BME280;8772;42.804;23.426;2023-04-30T05:22:44;73526.56;;;-140.58;100.00
17309;BME280;8772;42.804;23.426;2023-04-30T05:25:12;73520.41;;;-140.58;100.00
17309;BME280;8772;42.804;23.426;2023-04-30T05:27:39;73516.31;;;-140.58;100.00
17309;BME280;8772;42.804;23.426;2023-04-30T05:30:07;73518.38;;;-140.58;100.00
17309;BME280;8772;42.804;23.426;2023-04-30T05:32:34;73497.84;;;-140.58;100.00
17309;BME280;8772;42.804;23.426;2023-04-30T05:35:01;73487.59;;;-140.58;100.00
17309;BME280;8772;42.804;23.426;2023-04-30T05:37:28;73473.25;;;-140.58;100.00
17309;BME280;8772;42.804;23.426;2023-04-30T05:39:55;73475.28;;;-140.58;100.00
17309;BME280;8772;42.804;23.426;2023-04-30T05:42:24;73452.72;;;-140.58;100.00
17309;BME280;8772;42.804;23.426;2023-04-30T05:44:50;73438.38;;;-140.58;100.00
17309;BME280;8772;42.804;23.426;2023-04-30T05:47:17;73424.00;;;-140.58;100.00
17309;BME280;8772;42.804;23.426;2023-04-30T05:49:44;73413.75;;;-140.58;100.00
17309;BME280;8772;42.804;23.426;2023-04-30T05:52:11;73397.34;;;-140.58;100.00
17309;BME280;8772;42.804;23.426;2023-04-30T05:54:39;73393.25;;;-140.58;100.00
17309;BME280;8772;42.804;23.426;2023-04-30T05:57:06;73376.84;;;-140.58;100.00
17309;BME280;8772;42.804;23.426;2023-04-30T05:59:34;73366.56;;;-140.58;100.00
17309;BME280;8772;42.804;23.426;2023-04-30T06:02:01;73352.22;;;-140.58;100.00
17309;BME280;8772;42.804;23.426;2023-04-30T06:04:28;73341.97;;;-140.58;100.00
17309;BME280;8772;42.804;23.426;2023-04-30T06:06:55;73327.59;;;-140.58;100.00
17309;BME280;8772;42.804;23.426;2023-04-30T06:09:22;73317.34;;;-140.58;100.00
17309;BME280;8772;42.804;23.426;2023-04-30T06:11:49;73305.03;;;-140.58;100.00
17309;BME280;8772;42.804;23.426;2023-04-30T06:14:16;73292.72;;;-140.58;100.00
17309;BME280;8772;42.804;23.426;2023-04-30T06:16:45;73292.72;;;-140.58;100.00
17309;BME280;8772;42.804;23.426;2023-04-30T06:19:11;73276.31;;;-140.58;100.00
17309;BME280;8772;42.804;23.426;2023-04-30T06:21:38;73278.38;;;-140.58;100.00
17309;BME280;8772;42.804;23.426;2023-04-30T06:24:07;73268.13;;;-140.58;99.29
17309;BME280;8772;42.804;23.426;2023-04-30T06:26:34;73266.06;;;-140.58;97.42
17309;BME280;8772;42.804;23.426;2023-04-30T06:29:01;73255.81;;;-140.58;95.67
17309;BME280;8772;42.804;23.426;2023-04-30T06:31:29;73247.59;;;-140.58;96.06
17309;BME280;8772;42.804;23.426;2023-04-30T06:33:57;73235.31;;;-140.58;91.23
17309;BME280;8772;42.804;23.426;2023-04-30T06:36:24;73214.78;;;-140.58;94.09
17309;BME280;8772;42.804;23.426;2023-04-30T06:38:51;73202.47;;;-140.58;93.89
17309;BME280;8772;42.804;23.426;2023-04-30T06:41:18;73194.28;;;-140.58;84.40
17309;BME280;8772;42.804;23.426;2023-04-30T06:43:45;73173.78;;;-140.58;87.01
17309;BME280;8772;42.804;23.426;2023-04-30T06:46:12;73157.34;;;-140.58;85.49
17309;BME280;8772;42.804;23.426;2023-04-30T06:48:39;73140.94;;;-140.58;85.52
17309;BME280;8772;42.804;23.426;2023-04-30T06:51:07;73132.75;;;-140.58;79.86
17309;BME280;8772;42.804;23.426;2023-04-30T06:53:34;73124.53;;;-140.58;84.95
17309;BME280;8772;42.804;23.426;2023-04-30T06:56:01;73116.34;;;-140.58;82.44
17309;BME280;8772;42.804;23.426;2023-04-30T06:58:28;73087.63;;;-140.58;83.97
17309;BME280;8772;42.804;23.426;2023-04-30T07:00:55;73075.31;;;-140.58;81.82
17309;BME280;8772;42.804;23.426;2023-04-30T07:03:22;73058.91;;;-140.58;80.05
17309;BME280;8772;42.804;23.426;2023-04-30T07:05:49;73063.00;;;-140.58;79.55
17309;BME280;8772;42.804;23.426;2023-04-30T07:08:20;73050.72;;;-140.58;76.04
17309;BME280;8772;42.804;23.426;2023-04-30T07:10:46;73046.59;;;-140.58;75.50
17309;BME280;8772;42.804;23.426;2023-04-30T07:13:13;73042.50;;;-140.58;72.16
17309;BME280;8772;42.804;23.426;2023-04-30T07:15:42;73046.59;;;-140.58;71.44
17309;BME280;8772;42.804;23.426;2023-04-30T07:18:09;73046.59;;;-140.58;71.70
17309;BME280;8772;42.804;23.426;2023-04-30T07:20:36;73034.31;;;-140.58;69.97
17309;BME280;8772;42.804;23.426;2023-04-30T07:23:03;73042.50;;;-140.58;70.20
17309;BME280;8772;42.804;23.426;2023-04-30T07:25:31;73026.09;;;-140.58;71.80
17309;BME280;8772;42.804;23.426;2023-04-30T07:27:58;73017.91;;;-140.58;69.92
17309;BME280;8772;42.804;23.426;2023-04-30T07:30:25;73003.53;;;-140.58;69.39
17309;BME280;8772;42.804;23.426;2023-04-30T07:32:52;73005.59;;;-140.58;69.03
17309;BME280;8772;42.804;23.426;2023-04-30T07:35:19;72989.19;;;-140.58;67.07
17309;BME280;8772;42.804;23.426;2023-04-30T07:37:46;72985.06;;;-140.58;64.63
17309;BME280;8772;42.804;23.426;2023-04-30T07:40:14;72980.97;;;-140.58;67.21
17309;BME280;8772;42.804;23.426;2023-04-30T07:42:42;72960.47;;;-140.58;67.18
17309;BME280;8772;42.804;23.426;2023-04-30T07:45:09;72944.06;;;-140.58;66.58
17309;BME280;8772;42.804;23.426;2023-04-30T07:47:37;72942.00;;;-140.58;65.39
17309;BME280;8772;42.804;23.426;2023-04-30T07:50:05;72927.66;;;-140.58;64.32
17309;BME280;8772;42.804;23.426;2023-04-30T07:52:32;72927.66;;;-140.58;65.63
17309;BME280;8772;42.804;23.426;2023-04-30T07:54:59;72927.66;;;-140.58;65.02
17309;BME280;8772;42.804;23.426;2023-04-30T07:57:26;72911.25;;;-140.58;66.95
17309;BME280;8772;42.804;23.426;2023-04-30T07:59:54;72898.94;;;-140.58;66.23
17309;BME280;8772;42.804;23.426;2023-04-30T08:02:21;72886.63;;;-140.58;65.17
17309;BME280;8772;42.804;23.426;2023-04-30T08:04:48;72872.28;;;-140.58;64.62
17309;BME280;8772;42.804;23.426;2023-04-30T08:07:15;72874.31;;;-140.58;63.50
17309;BME280;8772;42.804;23.426;2023-04-30T08:09:42;72866.13;;;-140.58;62.40
17309;BME280;8772;42.804;23.426;2023-04-30T08:12:09;72872.28;;;-140.58;61.86
17309;BME280;8772;42.804;23.426;2023-04-30T08:14:36;72886.63;;;-140.58;62.56
17309;BME280;8772;42.804;23.426;2023-04-30T08:17:04;72884.59;;;-140.58;61.59
17309;BME280;8772;42.804;23.426;2023-04-30T08:19:31;72880.47;;;-140.58;63.45
17309;BME280;8772;42.804;23.426;2023-04-30T08:21:58;72882.53;;;-140.58;65.81
17309;BME280;8772;42.804;23.426;2023-04-30T08:24:25;72886.63;;;-140.58;67.61
17309;BME280;8772;42.804;23.426;2023-04-30T08:26:52;72890.72;;;-140.58;69.29
17309;BME280;8772;42.804;23.426;2023-04-30T08:29:19;72886.63;;;-140.58;68.55
17309;BME280;8772;42.804;23.426;2023-04-30T08:31:46;72882.53;;;-140.58;68.92
17309;BME280;8772;42.804;23.426;2023-04-30T08:34:14;72878.44;;;-140.58;66.27
17309;BME280;8772;42.804;23.426;2023-04-30T08:36:41;72866.13;;;-140.58;65.56
17309;BME280;8772;42.804;23.426;2023-04-30T08:39:08;72868.19;;;-140.58;66.12
17309;BME280;8772;42.804;23.426;2023-04-30T08:41:38;72857.91;;;-140.58;65.27
17309;BME280;8772;42.804;23.426;2023-04-30T08:44:09;72837.41;;;-140.58;66.56
17309;BME280;8772;42.804;23.426;2023-04-30T08:46:37;72814.84;;;-140.58;61.97
17309;BME280;8772;42.804;23.426;2023-04-30T08:49:04;72784.09;;;-140.58;66.35
17309;BME280;8772;42.804;23.426;2023-04-30T08:51:33;72747.19;;;-140.58;66.46
17309;BME280;8772;42.804;23.426;2023-04-30T08:54:00;72706.16;;;-140.58;63.24
17309;BME280;8772;42.804;23.426;2023-04-30T08:56:27;72677.44;;;-140.58;61.08
17309;BME280;8772;42.804;23.426;2023-04-30T08:58:55;72632.34;;;-140.58;59.09
17309;BME280;8772;42.804;23.426;2023-04-30T09:01:22;72595.41;;;-140.58;56.55
17309;BME280;8772;42.804;23.426;2023-04-30T09:03:50;72554.41;;;-140.58;52.11
17309;BME280;8772;42.804;23.426;2023-04-30T09:06:17;72517.50;;;-140.58;51.41
17309;BME280;8772;42.804;23.426;2023-04-30T09:08:46;72484.69;;;-140.58;48.94
17309;BME280;8772;42.804;23.426;2023-04-30T09:11:21;72439.56;;;-140.58;50.04
17309;BME280;8772;42.804;23.426;2023-04-30T09:13:50;72378.03;;;-140.58;49.72
17309;BME280;8772;42.804;23.426;2023-04-30T09:16:17;72332.94;;;-140.58;47.31
17309;BME280;8772;42.804;23.426;2023-04-30T09:18:44;72283.72;;;-140.58;47.57
17309;BME280;8772;42.804;23.426;2023-04-30T09:21:11;72255.00;;;-140.58;46.82
17309;BME280;8772;42.804;23.426;2023-04-30T09:23:53;72205.81;;;-140.58;43.77
17309;BME280;8772;42.804;23.426;2023-04-30T09:26:25;72201.69;;;-140.58;42.75
17309;BME280;8772;42.804;23.426;2023-04-30T09:28:56;72193.50;;;-140.58;44.39
17309;BME280;8772;42.804;23.426;2023-04-30T09:31:24;72203.75;;;-140.58;45.05
17309;BME280;8772;42.804;23.426;2023-04-30T09:33:51;72236.56;;;-140.58;44.80
17309;BME280;8772;42.804;23.426;2023-04-30T09:36:19;72304.22;;;-140.58;47.33
17309;BME280;8772;42.804;23.426;2023-04-30T09:38:46;72378.03;;;-140.58;46.66
17309;BME280;8772;42.804;23.426;2023-04-30T09:41:25;72390.34;;;-140.58;48.09
17309;BME280;8772;42.804;23.426;2023-04-30T09:43:52;72412.91;;;-140.58;48.98
17309;BME280;8772;42.804;23.426;2023-04-30T09:46:20;72482.63;;;-140.58;49.14
17309;BME280;8772;42.804;23.426;2023-04-30T09:48:56;72521.59;;;-140.58;50.88
17309;BME280;8772;42.804;23.426;2023-04-30T09:51:23;72550.31;;;-140.58;51.31
17309;BME280;8772;42.804;23.426;2023-04-30T09:53:52;72583.13;;;-140.58;52.51
17309;BME280;8772;42.804;23.426;2023-04-30T09:56:20;72599.53;;;-140.58;52.82
17309;BME280;8772;42.804;23.426;2023-04-30T09:58:51;72652.84;;;-140.58;53.18
17309;BME280;8772;42.804;23.426;2023-04-30T10:01:19;72665.16;;;-140.58;55.41
17309;BME280;8772;42.804;23.426;2023-04-30T10:03:47;72702.06;;;-140.58;57.56
17309;BME280;8772;42.804;23.426;2023-04-30T10:06:15;72702.06;;;-140.58;59.58
17309;BME280;8772;42.804;23.426;2023-04-30T10:08:46;72730.78;;;-140.58;63.32
17309;BME280;8772;42.804;23.426;2023-04-30T10:11:19;72720.50;;;-140.58;64.76
17309;BME280;8772;42.804;23.426;2023-04-30T10:13:53;72706.16;;;-140.58;66.78
17309;BME280;8772;42.804;23.426;2023-04-30T10:16:28;72673.34;;;-140.58;70.50
17309;BME280;8772;42.804;23.426;2023-04-30T10:18:59;72669.25;;;-140.58;64.17
17309;BME280;8772;42.804;23.426;2023-04-30T10:21:29;72620.03;;;-140.58;68.36
17309;BME280;8772;42.804;23.426;2023-04-30T10:23:57;72574.91;;;-140.58;65.89
17309;BME280;8772;42.804;23.426;2023-04-30T10:26:24;72544.16;;;-140.58;61.64
17309;BME280;8772;42.804;23.426;2023-04-30T10:28:53;72529.78;;;-140.58;58.27
17309;BME280;8772;42.804;23.426;2023-04-30T10:31:23;72542.09;;;-140.58;55.87
17309;BME280;8772;42.804;23.426;2023-04-30T10:33:58;72603.63;;;-140.58;53.44
17309;BME280;8772;42.804;23.426;2023-04-30T10:36:35;72661.03;;;-140.58;52.61
17309;BME280;8772;42.804;23.426;2023-04-30T10:39:03;72708.22;;;-140.58;53.57
17309;BME280;8772;42.804;23.426;2023-04-30T10:41:31;72800.50;;;-140.58;54.67
17309;BME280;8772;42.804;23.426;2023-04-30T10:44:01;72825.09;;;-140.58;58.26
17309;BME280;8772;42.804;23.426;2023-04-30T10:46:30;72937.91;;;-140.58;68.01
17309;BME280;8772;42.804;23.426;2023-04-30T10:48:56;72976.88;;;-140.58;75.74
17309;BME280;8772;42.804;23.426;2023-04-30T10:51:43;72962.50;;;-140.58;75.10
17309;BME280;8772;42.804;23.426;2023-04-30T10:54:11;73022.00;;;-140.58;82.70
17309;BME280;8772;42.804;23.426;2023-04-30T10:56:39;72989.19;;;-140.58;88.03
17309;BME280;8772;42.804;23.426;2023-04-30T10:59:07;72980.97;;;-140.58;92.69
17309;BME280;8772;42.804;23.426;2023-04-30T11:01:56;73001.47;;;-140.58;91.02
17309;BME280;8772;42.804;23.426;2023-04-30T11:04:24;73001.47;;;-140.58;93.65
17309;BME280;8772;42.804;23.426;2023-04-30T11:06:59;72991.22;;;-140.58;100.00
17309;BME280;8772;42.804;23.426;2023-04-30T11:09:35;73001.47;;;-140.58;100.00
17309;BME280;8772;42.804;23.426;2023-04-30T11:12:04;72993.28;;;-140.58;100.00
17309;BME280;8772;42.804;23.426;2023-04-30T11:14:33;72991.22;;;-140.58;96.87
17309;BME280;8772;42.804;23.426;2023-04-30T11:17:00;72985.06;;;-140.58;100.00
17309;BME280;8772;42.804;23.426;2023-04-30T11:19:27;72966.63;;;-140.58;99.29
17309;BME280;8772;42.804;23.426;2023-04-30T11:22:14;72948.16;;;-140.58;100.00
17309;BME280;8772;42.804;23.426;2023-04-30T11:24:52;72927.66;;;-140.58;100.00
17309;BME280;8772;42.804;23.426;2023-04-30T11:27:21;72913.28;;;-140.58;100.00
17309;BME280;8772;42.804;23.426;2023-04-30T11:29:50;72894.84;;;-140.58;100.00
17309;BME280;8772;42.804;23.426;2023-04-30T11:32:18;72884.59;;;-140.58;96.47
17309;BME280;8772;42.804;23.426;2023-04-30T11:34:45;72872.28;;;-140.58;92.99
17309;BME280;8772;42.804;23.426;2023-04-30T11:37:14;72870.22;;;-140.58;87.13
17309;BME280;8772;42.804;23.426;2023-04-30T11:39:42;72845.63;;;-140.58;86.99
17309;BME280;8772;42.804;23.426;2023-04-30T11:42:09;72827.16;;;-140.58;86.08
17309;BME280;8772;42.804;23.426;2023-04-30T11:44:35;72792.28;;;-140.58;95.23
17309;BME280;8772;42.804;23.426;2023-04-30T11:47:04;72755.38;;;-140.58;93.93
17309;BME280;8772;42.804;23.426;2023-04-30T11:49:31;72749.22;;;-140.58;62.46
17309;BME280;8772;42.804;23.426;2023-04-30T11:51:59;72759.47;;;-140.58;69.70
17309;BME280;8772;42.804;23.426;2023-04-30T11:54:25;72730.78;;;-140.58;75.11
17309;BME280;8772;42.804;23.426;2023-04-30T11:56:52;72734.88;;;-140.58;70.13
17309;BME280;8772;42.804;23.426;2023-04-30T11:59:25;72747.19;;;-140.58;75.45
17309;BME280;8772;42.804;23.426;2023-04-30T12:01:52;72800.50;;;-140.58;78.04
17309;BME280;8772;42.804;23.426;2023-04-30T12:04:21;72784.09;;;-140.58;77.60
17309;BME280;8772;42.804;23.426;2023-04-30T12:06:48;72780.00;;;-140.58;78.95
17309;BME280;8772;42.804;23.426;2023-04-30T12:09:15;72775.88;;;-140.58;82.99
17309;BME280;8772;42.804;23.426;2023-04-30T12:11:42;72775.88;;;-140.58;85.75
17309;BME280;8772;42.804;23.426;2023-04-30T12:14:09;72769.72;;;-140.58;85.43
17309;BME280;8772;42.804;23.426;2023-04-30T12:16:41;72775.88;;;-140.58;84.26
17309;BME280;8772;42.804;23.426;2023-04-30T12:19:10;72794.34;;;-140.58;80.30
17309;BME280;8772;42.804;23.426;2023-04-30T12:21:40;72833.31;;;-140.58;82.65
17309;BME280;8772;42.804;23.426;2023-04-30T12:24:10;72837.41;;;-140.58;84.23
17309;BME280;8772;42.804;23.426;2023-04-30T12:26:37;72833.31;;;-140.58;79.21
17309;BME280;8772;42.804;23.426;2023-04-30T12:29:05;72816.91;;;-140.58;78.39
17309;BME280;8772;42.804;23.426;2023-04-30T12:31:35;72812.81;;;-140.58;81.02
17309;BME280;8772;42.804;23.426;2023-04-30T12:34:08;72800.50;;;-140.58;86.42
17309;BME280;8772;42.804;23.426;2023-04-30T12:36:35;72800.50;;;-140.58;84.69
17309;BME280;8772;42.804;23.426;2023-04-30T12:39:05;72784.09;;;-140.58;89.09
17309;BME280;8772;42.804;23.426;2023-04-30T12:41:35;72771.78;;;-140.58;91.66
17309;BME280;8772;42.804;23.426;2023-04-30T12:44:19;72759.47;;;-140.58;90.70